Time;durP1;ratioP1;P1;durP2;ratioP2;P2;SDS_P1;SDS_P2;PMS_P1;PMS_P2;Temp;Humidity;BMP_temperature;BMP_pressure;BME280_temperature;BME280_humidity;BME280_pressure;Samples;Min_cycle;Max_cycle;Signal;HPM_P1;HPM_P2
2022/12/04 00:02:13;;;;;;;56.50;22.40;;;;;;;0.92;99.05;99197.54;214026;1310;22478;-76
2022/12/04 00:07:15;;;;;;;64.20;25.40;;;;;;;0.93;99.15;99197.41;214165;1310;22460;-77
2022/12/04 00:12:22;;;;;;;58.00;23.30;;;;;;;0.96;99.17;99204.20;214165;1310;22523;-76
2022/12/04 00:17:24;;;;;;;64.20;26.10;;;;;;;1.00;99.29;99196.49;214142;1310;24468;-75
2022/12/04 00:22:26;;;;;;;51.00;21.10;;;;;;;1.04;99.22;99195.02;214185;1310;25279;-75
2022/12/04 00:27:28;;;;;;;57.10;23.80;;;;;;;1.10;99.40;99193.98;214221;1310;24072;-75
2022/12/04 00:32:32;;;;;;;60.70;24.70;;;;;;;1.11;99.22;99196.94;214253;1306;22614;-76
2022/12/04 00:37:34;;;;;;;51.40;24.50;;;;;;;1.13;99.17;99196.18;214259;1310;24337;-76
2022/12/04 00:42:35;;;;;;;56.30;25.80;;;;;;;1.09;98.90;99192.86;214095;1310;22485;-75
2022/12/04 00:47:43;;;;;;;63.00;25.20;;;;;;;1.07;98.95;99190.20;214051;1307;22596;-75
2022/12/04 00:52:45;;;;;;;60.50;24.30;;;;;;;1.05;98.93;99188.18;214051;1307;24314;-75
2022/12/04 00:57:47;;;;;;;56.60;24.00;;;;;;;1.02;99.09;99185.67;214025;1310;22493;-76
2022/12/04 01:02:49;;;;;;;55.40;24.60;;;;;;;1.00;98.87;99177.25;214133;1310;24305;-76
2022/12/04 01:07:52;;;;;;;56.40;25.80;;;;;;;0.95;98.86;99179.74;214228;1302;22484;-76
2022/12/04 01:12:54;;;;;;;59.90;25.20;;;;;;;0.91;99.03;99176.84;214299;1310;22478;-76
2022/12/04 01:17:56;;;;;;;49.50;21.30;;;;;;;0.89;98.75;99174.07;214328;1310;24468;-76
2022/12/04 01:22:58;;;;;;;48.40;19.50;;;;;;;0.82;98.99;99167.00;214229;1310;22538;-75
2022/12/04 01:27:59;;;;;;;52.20;21.70;;;;;;;0.77;98.98;99168.21;214215;1310;22488;-75
2022/12/04 01:33:01;;;;;;;41.80;20.70;;;;;;;0.67;98.64;99164.61;214251;1310;24244;-75
2022/12/04 01:38:03;;;;;;;47.70;21.30;;;;;;;0.52;98.64;99157.44;214162;1310;25352;-76
2022/12/04 01:43:08;;;;;;;49.00;21.80;;;;;;;0.41;98.85;99153.02;214263;1310;22629;-76
2022/12/04 01:48:32;;;;;;;50.20;21.50;;;;;;;0.34;99.20;99156.78;214172;1310;22486;-76
2022/12/04 01:53:39;;;;;;;45.30;19.90;;;;;;;0.27;99.26;99147.37;214234;1307;22482;-77
2022/12/04 01:58:48;;;;;;;46.80;20.00;;;;;;;0.19;99.51;99158.52;214059;1310;22842;-76
2022/12/04 02:03:49;;;;;;;46.50;21.30;;;;;;;0.17;99.51;99155.14;214112;1310;26464;-75
2022/12/04 02:08:51;;;;;;;50.70;21.40;;;;;;;0.13;99.67;99143.80;214244;1310;24471;-77
2022/12/04 02:14:04;;;;;;;49.70;20.90;;;;;;;0.13;99.83;99140.48;214287;1310;22489;-76
2022/12/04 02:19:19;;;;;;;40.10;17.70;;;;;;;0.13;99.82;99136.88;214187;1310;22521;-76
2022/12/04 02:24:36;;;;;;;47.00;18.80;;;;;;;0.05;99.80;99140.19;214114;1305;22470;-76
2022/12/04 02:29:56;;;;;;;52.20;22.10;;;;;;;0.03;99.98;99145.33;214034;1310;22472;-76
2022/12/04 02:35:07;;;;;;;46.80;22.40;;;;;;;-0.00;99.98;99152.19;214274;1310;25235;-76
2022/12/04 02:40:28;;;;;;;49.60;21.30;;;;;;;-0.00;100.00;99144.08;214216;1304;22532;-76
2022/12/04 02:45:37;;;;;;;48.10;21.80;;;;;;;-0.03;100.00;99140.11;213992;1294;25531;-75
2022/12/04 02:50:40;;;;;;;51.30;23.40;;;;;;;-0.07;100.00;99129.20;214134;1303;23734;-77
2022/12/04 02:55:47;;;;;;;47.60;22.50;;;;;;;-0.10;100.00;99125.32;214209;1303;22490;-76
2022/12/04 03:00:50;;;;;;;57.30;26.20;;;;;;;-0.13;100.00;99127.76;214054;1310;22521;-76
2022/12/04 03:06:01;;;;;;;51.30;22.70;;;;;;;-0.09;100.00;99127.34;214301;1311;23856;-76
2022/12/04 03:11:03;;;;;;;57.90;25.30;;;;;;;-0.09;100.00;99133.30;214179;1310;24404;-77
2022/12/04 03:16:21;;;;;;;61.80;26.00;;;;;;;-0.06;100.00;99132.23;214035;1310;25435;-76
2022/12/04 03:21:28;;;;;;;55.20;24.00;;;;;;;-0.02;100.00;99127.27;214141;1311;22521;-75
2022/12/04 03:26:37;;;;;;;50.50;23.90;;;;;;;-0.02;100.00;99123.05;214263;1310;22461;-75
2022/12/04 03:31:47;;;;;;;53.20;23.50;;;;;;;-0.09;100.00;99121.95;214082;1310;24286;-76
2022/12/04 03:36:57;;;;;;;52.00;22.50;;;;;;;-0.12;100.00;99114.06;214135;1298;24310;-76
2022/12/04 03:42:07;;;;;;;54.60;24.80;;;;;;;-0.13;100.00;99115.45;214419;1281;22460;-76
2022/12/04 03:47:16;;;;;;;68.00;29.10;;;;;;;-0.11;100.00;99108.55;214357;1290;22554;-76
2022/12/04 03:52:44;;;;;;;53.40;26.20;;;;;;;-0.16;100.00;99106.34;214360;1281;22574;-75
2022/12/04 03:57:48;;;;;;;53.40;24.80;;;;;;;-0.16;100.00;99109.91;214319;1281;22494;-76
2022/12/04 04:02:59;;;;;;;56.30;25.80;;;;;;;-0.19;100.00;99119.32;214353;1284;22463;-76
2022/12/04 04:24:53;;;;;;;51.60;23.10;;;;;;;-0.19;100.00;99116.04;214520;1287;23899;-76
2022/12/04 04:29:55;;;;;;;41.00;19.50;;;;;;;-0.14;100.00;99110.08;214196;1289;22479;-75
2022/12/04 04:35:22;;;;;;;43.50;21.40;;;;;;;-0.07;100.00;99116.39;214262;1295;26438;-75
2022/12/04 04:40:42;;;;;;;47.20;21.00;;;;;;;0.01;100.00;99121.25;214348;1281;22509;-76
2022/12/04 04:45:54;;;;;;;35.00;18.30;;;;;;;0.08;100.00;99114.89;214261;1288;22549;-75
2022/12/04 04:51:01;;;;;;;32.80;16.40;;;;;;;0.16;100.00;99116.02;214462;1287;24289;-76
2022/12/04 04:56:05;;;;;;;41.00;17.80;;;;;;;0.23;100.00;99114.40;214430;1284;22600;-77
2022/12/04 05:01:13;;;;;;;36.40;16.80;;;;;;;0.37;100.00;99113.17;214467;1281;22487;-76
2022/12/04 05:06:15;;;;;;;38.70;20.00;;;;;;;0.48;100.00;99111.52;214247;1280;22500;-76
2022/12/04 05:11:17;;;;;;;32.60;15.40;;;;;;;0.49;100.00;99108.50;214359;1288;25205;-75
2022/12/04 05:16:19;;;;;;;36.00;16.20;;;;;;;0.49;100.00;99110.42;214475;1287;22471;-76
2022/12/04 05:21:21;;;;;;;35.30;16.10;;;;;;;0.56;100.00;99106.31;214421;1286;22507;-77
2022/12/04 05:26:23;;;;;;;39.30;18.10;;;;;;;0.61;100.00;99109.69;214451;1281;23835;-76
2022/12/04 05:31:24;;;;;;;32.10;16.20;;;;;;;0.61;100.00;99113.05;214813;1288;22481;-77
2022/12/04 05:36:26;;;;;;;38.80;17.10;;;;;;;0.52;100.00;99121.96;214409;1295;24196;-76
2022/12/04 05:41:28;;;;;;;39.30;15.60;;;;;;;0.43;100.00;99122.67;214282;1281;24391;-74
2022/12/04 05:46:30;;;;;;;33.20;13.20;;;;;;;0.30;100.00;99119.17;214260;1284;22647;-75
2022/12/04 05:51:32;;;;;;;34.50;15.80;;;;;;;0.24;100.00;99119.30;214282;1288;25310;-76
2022/12/04 05:56:34;;;;;;;41.70;17.80;;;;;;;0.28;100.00;99111.05;214420;1288;23780;-74
2022/12/04 06:01:36;;;;;;;36.80;15.50;;;;;;;0.35;100.00;99120.81;214329;1287;24107;-74
2022/12/04 06:06:38;;;;;;;42.00;16.00;;;;;;;0.41;100.00;99120.05;214224;1284;22573;-77
2022/12/04 06:11:41;;;;;;;33.80;14.60;;;;;;;0.46;100.00;99120.42;214459;1281;24419;-75
2022/12/04 06:16:45;;;;;;;44.20;18.20;;;;;;;0.52;100.00;99119.52;214257;1281;24076;-75
2022/12/04 06:21:50;;;;;;;41.50;17.00;;;;;;;0.57;100.00;99114.42;214353;1281;22511;-75
2022/12/04 06:26:59;;;;;;;45.10;20.80;;;;;;;0.57;100.00;99115.40;214267;1281;22504;-75
2022/12/04 06:32:20;;;;;;;37.50;17.70;;;;;;;0.54;100.00;99128.03;214213;1288;22684;-77
2022/12/04 06:37:24;;;;;;;43.00;19.50;;;;;;;0.54;100.00;99135.98;214285;1281;22482;-76
2022/12/04 06:42:25;;;;;;;44.20;20.30;;;;;;;0.55;100.00;99136.30;214377;1281;25297;-76
2022/12/04 06:47:27;;;;;;;44.60;19.90;;;;;;;0.56;100.00;99139.21;214236;1288;22472;-75
2022/12/04 06:52:32;;;;;;;40.60;19.30;;;;;;;0.56;100.00;99143.63;214442;1287;23833;-76
2022/12/04 06:57:34;;;;;;;49.80;20.40;;;;;;;0.58;100.00;99140.48;214506;1281;24297;-75
2022/12/04 07:02:36;;;;;;;41.10;17.40;;;;;;;0.56;100.00;99142.02;214273;1281;25592;-76
2022/12/04 07:07:37;;;;;;;44.20;19.40;;;;;;;0.54;100.00;99145.31;214241;1281;25261;-76
2022/12/04 07:12:39;;;;;;;39.00;16.40;;;;;;;0.58;100.00;99147.96;214319;1287;22893;-76
2022/12/04 07:17:41;;;;;;;44.70;20.00;;;;;;;0.59;100.00;99147.02;214348;1295;22512;-76
2022/12/04 07:22:43;;;;;;;44.00;17.50;;;;;;;0.61;100.00;99146.96;214145;1281;22964;-76
2022/12/04 07:27:45;;;;;;;38.10;16.50;;;;;;;0.65;100.00;99150.90;214175;1290;22502;-77
2022/12/04 07:32:47;;;;;;;40.70;17.10;;;;;;;0.69;100.00;99160.09;214355;1281;22476;-76
2022/12/04 07:37:49;;;;;;;32.80;14.80;;;;;;;0.72;100.00;99147.84;214188;1284;24582;-76
2022/12/04 07:42:51;;;;;;;31.30;13.60;;;;;;;0.78;100.00;99152.59;214384;1288;23173;-76
2022/12/04 07:47:52;;;;;;;28.50;13.40;;;;;;;0.84;100.00;99158.52;214094;1288;23216;-74
2022/12/04 07:52:54;;;;;;;30.70;14.10;;;;;;;0.87;100.00;99156.50;214235;1287;22487;-75
2022/12/04 07:57:56;;;;;;;34.00;13.60;;;;;;;0.94;100.00;99161.31;214332;1287;22943;-76
2022/12/04 08:02:58;;;;;;;33.40;13.90;;;;;;;1.00;100.00;99162.27;214372;1295;22476;-76
2022/12/04 08:07:59;;;;;;;33.40;13.80;;;;;;;1.04;100.00;99166.88;214424;1281;22521;-76
2022/12/04 08:13:01;;;;;;;34.50;14.70;;;;;;;1.09;100.00;99179.62;214325;1281;24506;-75
2022/12/04 08:18:03;;;;;;;31.50;13.90;;;;;;;1.19;100.00;99171.73;214220;1287;22486;-76
2022/12/04 08:23:05;;;;;;;32.10;12.80;;;;;;;1.27;100.00;99169.95;214237;1288;25357;-76
2022/12/04 08:28:07;;;;;;;31.00;15.00;;;;;;;1.34;100.00;99159.53;214143;1288;24361;-75
2022/12/04 08:33:09;;;;;;;31.00;12.60;;;;;;;1.43;100.00;99157.62;214283;1281;22573;-76
2022/12/04 08:38:11;;;;;;;27.60;12.30;;;;;;;1.50;100.00;99147.59;214313;1281;22483;-76
2022/12/04 08:43:12;;;;;;;25.80;11.60;;;;;;;1.57;100.00;99152.98;214337;1284;22472;-75
2022/12/04 08:48:14;;;;;;;29.70;12.80;;;;;;;1.63;100.00;99154.48;214393;1281;23671;-75
2022/12/04 08:53:16;;;;;;;31.60;12.70;;;;;;;1.63;100.00;99162.65;214202;1288;22592;-79
2022/12/04 08:58:19;;;;;;;26.20;11.90;;;;;;;1.71;100.00;99163.91;214290;1288;24338;-76
2022/12/04 09:03:21;;;;;;;30.30;13.50;;;;;;;1.79;100.00;99162.92;214270;1286;22563;-77
2022/12/04 09:08:32;;;;;;;29.20;13.30;;;;;;;1.92;100.00;99176.02;214150;1281;22482;-75
2022/12/04 09:13:35;;;;;;;28.00;13.70;;;;;;;2.02;100.00;99169.43;214433;1281;22473;-76
2022/12/04 09:18:37;;;;;;;29.30;14.00;;;;;;;2.13;100.00;99175.12;214284;1284;25280;-77
2022/12/04 09:23:40;;;;;;;27.70;13.40;;;;;;;2.20;100.00;99178.60;214209;1310;22487;-76
2022/12/04 09:28:42;;;;;;;28.10;13.40;;;;;;;2.30;100.00;99180.11;214127;1281;24253;-75
2022/12/04 09:33:44;;;;;;;29.10;13.00;;;;;;;2.38;100.00;99170.71;214132;1289;22478;-76
2022/12/04 09:38:49;;;;;;;32.00;14.40;;;;;;;2.46;100.00;99174.75;214153;1298;25367;-76
2022/12/04 09:44:02;;;;;;;28.80;14.30;;;;;;;2.49;100.00;99177.97;214209;1297;22550;-74
2022/12/04 09:49:11;;;;;;;30.10;15.50;;;;;;;2.56;100.00;99167.83;214150;1310;22507;-75
2022/12/04 09:54:18;;;;;;;30.00;14.90;;;;;;;2.63;100.00;99154.94;214173;1310;22468;-74
2022/12/04 09:59:24;;;;;;;28.30;14.70;;;;;;;2.73;100.00;99159.84;214088;1288;23652;-81
2022/12/04 10:04:26;;;;;;;26.80;13.90;;;;;;;2.81;99.92;99155.32;214287;1285;22466;-84
2022/12/04 10:09:34;;;;;;;25.30;12.70;;;;;;;2.83;99.79;99154.43;214082;1298;23170;-74
2022/12/04 10:15:04;;;;;;;33.40;15.90;;;;;;;2.92;99.82;99149.93;214286;1310;22474;-74
2022/12/04 10:20:09;;;;;;;31.40;15.90;;;;;;;3.04;99.79;99138.75;214206;1310;22537;-75
2022/12/04 10:25:17;;;;;;;33.20;16.90;;;;;;;3.12;99.71;99138.16;214299;1281;25334;-75
2022/12/04 10:30:23;;;;;;;31.60;15.30;;;;;;;3.25;99.70;99130.81;214045;1310;22494;-76
2022/12/04 10:35:30;;;;;;;30.80;14.90;;;;;;;3.29;99.35;99128.56;213902;1310;25326;-75
2022/12/04 10:40:39;;;;;;;33.10;16.40;;;;;;;3.24;99.03;99126.38;213793;1310;111101;-76
2022/12/04 10:45:41;;;;;;;26.40;14.40;;;;;;;3.27;99.04;99122.91;214025;1311;24801;-75
2022/12/04 10:50:43;;;;;;;29.40;14.20;;;;;;;3.32;99.03;99119.84;214050;1310;25271;-76
2022/12/04 10:55:45;;;;;;;26.40;13.40;;;;;;;3.35;98.77;99114.40;213971;1307;22479;-74
2022/12/04 11:01:16;;;;;;;34.30;16.10;;;;;;;3.36;98.57;99113.83;213970;1310;24427;-74
2022/12/04 11:06:23;;;;;;;30.00;16.00;;;;;;;3.38;98.56;99114.23;213923;1310;22943;-75
2022/12/04 11:11:32;;;;;;;30.20;15.80;;;;;;;3.46;98.64;99108.27;213937;1301;22482;-74
2022/12/04 11:16:37;;;;;;;29.30;15.30;;;;;;;3.53;98.55;99099.77;213975;1312;24477;-75
2022/12/04 11:21:39;;;;;;;30.70;15.40;;;;;;;3.54;98.06;99098.89;214107;1311;22471;-75
2022/12/04 11:26:41;;;;;;;31.70;14.70;;;;;;;3.60;98.16;99103.98;213909;1313;22477;-76
2022/12/04 11:31:49;;;;;;;33.50;16.70;;;;;;;3.66;98.05;99095.48;213936;1312;22673;-75
2022/12/04 11:36:55;;;;;;;33.60;17.30;;;;;;;3.69;97.93;99086.41;214058;1312;25361;-75
2022/12/04 11:42:04;;;;;;;32.50;17.20;;;;;;;3.76;98.17;99085.08;214045;1313;25260;-73
2022/12/04 11:47:17;;;;;;;27.10;14.60;;;;;;;3.80;97.95;99091.77;214045;1311;22484;-75
2022/12/04 11:52:26;;;;;;;28.60;14.20;;;;;;;3.90;98.19;99090.90;214288;1312;23083;-75
2022/12/04 11:57:37;;;;;;;32.00;16.80;;;;;;;3.98;97.86;99088.66;214234;1307;22579;-75
2022/12/04 12:02:42;;;;;;;33.60;15.80;;;;;;;3.95;97.50;99088.36;214110;1310;25285;-75
2022/12/04 12:08:18;;;;;;;29.90;15.80;;;;;;;3.88;97.11;99097.92;214278;1311;24268;-73
2022/12/04 12:13:32;;;;;;;32.30;17.50;;;;;;;3.74;96.86;99094.37;214021;1309;23881;-74
2022/12/04 12:19:03;;;;;;;32.60;17.70;;;;;;;3.56;96.89;99090.50;214234;1298;22495;-76
2022/12/04 12:24:26;;;;;;;33.10;17.10;;;;;;;3.44;97.21;99098.84;214064;1312;22507;-76
2022/12/04 12:29:52;;;;;;;31.20;18.40;;;;;;;3.40;97.44;99097.44;214120;1312;24472;-75
2022/12/04 12:34:55;;;;;;;35.60;18.60;;;;;;;3.45;97.83;99100.45;214121;1311;25356;-75
2022/12/04 12:40:04;;;;;;;35.40;16.50;;;;;;;3.49;97.56;99091.95;214013;1312;22485;-74
2022/12/04 12:45:22;;;;;;;32.40;18.10;;;;;;;3.45;97.26;99095.64;214069;1312;23055;-75
2022/12/04 12:50:43;;;;;;;39.70;22.30;;;;;;;3.43;97.48;99104.20;214112;1310;24275;-75
2022/12/04 12:55:51;;;;;;;37.80;17.70;;;;;;;3.42;97.47;99095.05;214304;1312;25573;-75
2022/12/04 13:01:18;;;;;;;35.90;19.00;;;;;;;3.31;97.06;99093.13;214140;1312;26076;-75
2022/12/04 13:06:31;;;;;;;42.60;21.20;;;;;;;3.20;97.16;99096.38;214036;1310;24071;-76
2022/12/04 13:11:35;;;;;;;39.50;20.50;;;;;;;3.12;97.15;99096.09;214008;1310;22473;-75
2022/12/04 13:16:44;;;;;;;43.60;21.00;;;;;;;3.03;97.29;99089.41;214038;1313;22466;-75
2022/12/04 13:22:04;;;;;;;44.20;21.30;;;;;;;2.95;97.39;99090.34;214142;1311;25286;-73
2022/12/04 13:27:22;;;;;;;40.00;20.80;;;;;;;2.86;97.53;99081.19;214192;1302;22471;-75
2022/12/04 13:32:30;;;;;;;40.50;21.20;;;;;;;2.80;97.61;99079.35;214002;1310;22481;-75
2022/12/04 13:37:44;;;;;;;46.70;23.70;;;;;;;2.72;97.64;99072.67;214061;1310;24345;-75
2022/12/04 13:42:46;;;;;;;45.10;23.30;;;;;;;2.64;97.96;99070.73;214118;1300;24235;-76
2022/12/04 13:47:56;;;;;;;40.50;22.30;;;;;;;2.56;97.82;99070.70;214080;1296;22470;-74
2022/12/04 13:52:59;;;;;;;49.80;25.80;;;;;;;2.47;97.99;99073.52;213995;1313;24266;-74
2022/12/04 13:58:24;;;;;;;52.70;26.30;;;;;;;2.44;98.35;99079.03;213966;1313;22630;-75
2022/12/04 14:03:44;;;;;;;51.10;26.10;;;;;;;2.43;98.63;99075.59;214118;1313;23022;-75
2022/12/04 14:08:46;;;;;;;46.50;24.70;;;;;;;2.43;98.67;99072.37;214104;1312;24485;-75
2022/12/04 14:13:51;;;;;;;44.00;23.00;;;;;;;2.41;98.72;99073.73;214274;1311;24981;-75
2022/12/04 14:19:01;;;;;;;43.30;23.30;;;;;;;2.37;98.90;99070.63;214449;1313;25264;-75
2022/12/04 14:24:28;;;;;;;41.30;20.60;;;;;;;2.36;98.96;99063.77;214175;1313;22629;-74
2022/12/04 14:29:48;;;;;;;42.10;20.90;;;;;;;2.29;98.89;99052.39;214334;1311;24266;-75
2022/12/04 14:34:52;;;;;;;38.10;19.30;;;;;;;2.25;98.96;99051.77;214114;1311;24217;-75
2022/12/04 14:39:56;;;;;;;43.90;22.20;;;;;;;2.16;98.94;99063.87;214177;1313;22630;-76
2022/12/04 14:44:59;;;;;;;42.00;20.70;;;;;;;2.07;98.98;99072.41;214204;1313;22546;-75
2022/12/04 14:50:34;;;;;;;37.40;17.40;;;;;;;2.02;99.10;99070.65;214179;1312;22502;-75
2022/12/04 14:56:23;;;;;;;40.80;19.90;;;;;;;1.97;99.43;99075.76;213866;1313;22535;-75
2022/12/04 15:01:31;;;;;;;41.00;20.10;;;;;;;1.92;99.50;99069.23;214111;1312;22481;-75
2022/12/04 15:06:33;;;;;;;50.60;23.90;;;;;;;1.95;99.77;99065.38;214084;1313;22483;-75
2022/12/04 15:17:16;;;;;;;46.70;22.00;;;;;;;2.05;99.97;99084.16;214178;1312;23771;-74
2022/12/04 15:22:25;;;;;;;41.10;19.70;;;;;;;2.12;100.00;99090.72;213953;1313;25521;-75
2022/12/04 15:27:28;;;;;;;40.80;20.10;;;;;;;2.17;100.00;99092.71;214127;1311;22618;-75
2022/12/04 15:32:33;;;;;;;40.70;20.30;;;;;;;2.24;100.00;99084.89;214317;1311;25330;-75
2022/12/04 15:37:36;;;;;;;39.40;17.80;;;;;;;2.27;100.00;99085.30;214356;1313;25502;-75
2022/12/04 15:42:38;;;;;;;36.50;17.80;;;;;;;2.33;100.00;99079.40;214221;1310;22485;-75
2022/12/04 15:47:40;;;;;;;36.80;16.40;;;;;;;2.34;100.00;99076.33;214238;1310;25267;-75
2022/12/04 15:52:55;;;;;;;35.80;17.10;;;;;;;2.35;100.00;99079.67;214329;1312;25022;-75
2022/12/04 15:58:03;;;;;;;36.10;15.80;;;;;;;2.35;100.00;99093.84;213889;1313;22482;-75
2022/12/04 16:03:58;;;;;;;38.90;17.80;;;;;;;2.35;100.00;99103.89;214269;1310;22509;-75
2022/12/04 16:09:20;;;;;;;37.90;17.10;;;;;;;2.43;100.00;99096.53;213838;1313;22540;-75
2022/12/04 16:14:22;;;;;;;39.80;18.70;;;;;;;2.50;100.00;99087.02;213759;1311;22462;-74
2022/12/04 16:19:27;;;;;;;36.90;16.80;;;;;;;2.50;100.00;99091.20;214237;1312;25213;-74
2022/12/04 16:24:29;;;;;;;41.10;16.50;;;;;;;2.51;100.00;99096.52;214208;1311;22550;-74
2022/12/04 16:29:31;;;;;;;47.10;19.40;;;;;;;2.53;100.00;99106.10;214074;1312;25348;-74
2022/12/04 16:34:33;;;;;;;36.70;17.00;;;;;;;2.58;100.00;99100.21;214104;1312;22523;-75
2022/12/04 16:39:35;;;;;;;39.30;17.10;;;;;;;2.65;100.00;99101.48;214091;1312;22504;-75
2022/12/04 16:44:42;;;;;;;35.50;17.00;;;;;;;2.67;100.00;99106.09;214123;1310;24296;-74
2022/12/04 16:49:47;;;;;;;41.30;17.70;;;;;;;2.68;100.00;99102.85;214215;1311;22515;-75
2022/12/04 16:54:49;;;;;;;35.10;15.20;;;;;;;2.73;100.00;99097.60;214076;1312;24577;-74
2022/12/04 16:59:51;;;;;;;33.10;15.80;;;;;;;2.76;100.00;99094.09;214217;1311;25437;-74
2022/12/04 17:04:53;;;;;;;33.60;16.20;;;;;;;2.76;100.00;99090.76;214005;1310;22679;-75
2022/12/04 17:09:58;;;;;;;33.90;16.30;;;;;;;2.73;100.00;99097.09;214115;1310;23787;-74
2022/12/04 17:15:00;;;;;;;39.70;17.50;;;;;;;2.71;100.00;99092.96;214082;1310;25270;-75
2022/12/04 17:20:02;;;;;;;38.00;18.20;;;;;;;2.71;100.00;99090.23;214119;1310;22475;-75
2022/12/04 17:25:06;;;;;;;38.80;19.50;;;;;;;2.68;100.00;99091.98;213967;1310;22467;-75
2022/12/04 17:30:09;;;;;;;37.40;18.20;;;;;;;2.66;100.00;99083.48;214193;1310;22458;-75
2022/12/04 17:35:11;;;;;;;35.10;16.90;;;;;;;2.65;100.00;99091.77;214070;1310;22500;-75
2022/12/04 17:40:13;;;;;;;33.60;15.80;;;;;;;2.66;100.00;99101.61;214194;1310;24311;-75
2022/12/04 17:45:15;;;;;;;33.00;15.60;;;;;;;2.64;100.00;99099.05;213917;1310;24507;-75
2022/12/04 17:50:17;;;;;;;35.90;17.20;;;;;;;2.61;100.00;99094.42;214064;1310;23740;-73
2022/12/04 17:55:19;;;;;;;29.30;15.40;;;;;;;2.58;100.00;99095.73;214204;1310;22445;-74
2022/12/04 18:00:22;;;;;;;32.80;16.50;;;;;;;2.56;100.00;99098.85;214258;1310;22476;-76
2022/12/04 18:05:24;;;;;;;32.90;17.00;;;;;;;2.55;100.00;99099.52;214152;1310;25282;-74
2022/12/04 18:10:26;;;;;;;32.80;16.20;;;;;;;2.53;100.00;99102.32;214291;1310;23228;-75
2022/12/04 18:15:28;;;;;;;33.30;16.90;;;;;;;2.50;100.00;99093.36;214055;1310;22472;-75
2022/12/04 18:20:30;;;;;;;36.00;16.00;;;;;;;2.42;100.00;99098.99;214036;1310;25161;-75
2022/12/04 18:25:31;;;;;;;36.00;18.00;;;;;;;2.39;100.00;99097.48;214197;1310;24342;-75
2022/12/04 18:30:34;;;;;;;29.70;15.00;;;;;;;2.34;100.00;99092.75;214141;1310;24116;-75
2022/12/04 18:35:36;;;;;;;32.60;16.00;;;;;;;2.30;100.00;99094.77;214012;1310;22468;-75
2022/12/04 18:40:37;;;;;;;38.40;17.90;;;;;;;2.26;100.00;99090.27;214032;1310;23741;-75
2022/12/04 18:45:43;;;;;;;39.50;19.80;;;;;;;2.23;100.00;99088.52;214137;1310;25343;-74
2022/12/04 18:50:45;;;;;;;38.80;18.70;;;;;;;2.20;100.00;99094.38;214064;1310;25331;-75
2022/12/04 18:55:47;;;;;;;42.50;18.40;;;;;;;2.19;100.00;99087.52;214296;1310;22625;-75
2022/12/04 19:00:50;;;;;;;38.00;18.60;;;;;;;2.18;100.00;99084.33;214139;1310;24250;-75
2022/12/04 19:05:52;;;;;;;36.50;17.80;;;;;;;2.17;100.00;99084.10;213998;1281;22471;-74
2022/12/04 19:10:54;;;;;;;40.70;18.80;;;;;;;2.14;100.00;99076.52;214232;1310;24383;-75
2022/12/04 19:15:56;;;;;;;36.80;16.40;;;;;;;2.11;100.00;99079.59;214322;1310;22484;-75
2022/12/04 19:20:58;;;;;;;41.80;19.40;;;;;;;2.05;100.00;99088.49;214094;1310;22520;-76
2022/12/04 19:26:00;;;;;;;37.60;19.20;;;;;;;2.03;100.00;99086.33;214134;1310;22517;-74
2022/12/04 19:31:03;;;;;;;39.80;17.00;;;;;;;2.04;100.00;99090.02;214153;1310;22485;-75
2022/12/04 19:36:05;;;;;;;42.30;18.70;;;;;;;2.04;100.00;99094.39;214161;1310;22494;-76
2022/12/04 19:41:12;;;;;;;45.60;21.00;;;;;;;2.02;100.00;99106.38;213999;1310;24431;-75
2022/12/04 19:46:17;;;;;;;43.90;19.40;;;;;;;2.02;100.00;99103.86;214147;1310;25436;-74
2022/12/04 19:51:20;;;;;;;45.60;19.10;;;;;;;2.02;100.00;99096.59;214358;1310;24183;-76
2022/12/04 19:56:25;;;;;;;50.30;21.70;;;;;;;2.00;100.00;99098.19;214078;1310;25404;-75
2022/12/04 20:01:30;;;;;;;44.70;19.40;;;;;;;1.98;100.00;99096.23;214269;1310;22865;-74
2022/12/04 20:06:37;;;;;;;41.80;19.50;;;;;;;1.95;100.00;99095.38;214429;1310;24684;-76
2022/12/04 20:11:40;;;;;;;43.40;19.10;;;;;;;1.94;100.00;99098.02;214083;1310;25355;-75
2022/12/04 20:16:42;;;;;;;34.60;16.60;;;;;;;1.90;100.00;99103.70;214031;1310;25462;-77
2022/12/04 20:21:45;;;;;;;37.00;17.50;;;;;;;1.84;100.00;99102.21;214086;1310;22461;-74
2022/12/04 20:26:47;;;;;;;41.20;18.10;;;;;;;1.83;100.00;99100.73;214136;1310;22509;-75
2022/12/04 20:31:49;;;;;;;41.40;16.30;;;;;;;1.82;100.00;99092.17;214167;1310;22492;-75
2022/12/04 20:36:51;;;;;;;43.40;18.80;;;;;;;1.82;100.00;99092.38;214032;1310;23146;-74
2022/12/04 20:41:54;;;;;;;40.90;17.30;;;;;;;1.81;100.00;99100.02;214281;1310;22488;-75
2022/12/04 20:46:57;;;;;;;46.40;19.80;;;;;;;1.87;100.00;99105.55;214090;1310;25559;-75
2022/12/04 20:51:59;;;;;;;47.70;21.50;;;;;;;1.85;100.00;99102.49;214112;1310;22475;-75
2022/12/04 20:57:01;;;;;;;40.60;18.20;;;;;;;1.82;100.00;99095.86;213901;1310;22661;-74
2022/12/04 21:02:02;;;;;;;40.00;18.50;;;;;;;1.77;100.00;99089.06;214178;1310;22469;-75
2022/12/04 21:07:05;;;;;;;38.70;17.60;;;;;;;1.71;100.00;99090.55;214275;1310;22471;-74
2022/12/04 21:16:00;;;;;;;43.80;18.40;;;;;;;1.69;100.00;99094.04;214167;1311;25368;-74
2022/12/04 21:17:29;;;;;;;45.40;19.40;;;;;;;1.71;100.00;99097.14;214124;1310;22484;-75
2022/12/04 21:22:31;;;;;;;49.00;19.10;;;;;;;1.64;100.00;99104.09;214154;1310;24129;-73
2022/12/04 21:27:33;;;;;;;42.70;17.90;;;;;;;1.59;100.00;99101.84;214135;1310;24254;-75
2022/12/04 21:32:35;;;;;;;36.10;15.40;;;;;;;1.56;100.00;99101.38;214154;1310;22599;-73
2022/12/04 21:37:37;;;;;;;45.30;18.00;;;;;;;1.53;100.00;99098.34;214088;1310;22478;-74
2022/12/04 21:42:39;;;;;;;35.10;16.70;;;;;;;1.50;100.00;99091.70;214071;1310;22693;-73
2022/12/04 21:47:41;;;;;;;41.60;17.50;;;;;;;1.45;100.00;99097.21;214122;1310;22496;-74
2022/12/04 21:52:42;;;;;;;38.20;16.60;;;;;;;1.39;100.00;99090.17;214132;1310;25225;-74
2022/12/04 21:57:44;;;;;;;41.10;16.70;;;;;;;1.32;100.00;99085.92;214259;1310;22635;-73
2022/12/04 22:02:46;;;;;;;43.60;17.70;;;;;;;1.29;100.00;99083.52;214232;1310;24367;-74
2022/12/04 22:07:48;;;;;;;40.50;17.60;;;;;;;1.32;100.00;99085.00;214115;1310;22481;-74
2022/12/04 22:12:56;;;;;;;37.90;15.50;;;;;;;1.31;100.00;99087.33;214033;1309;22521;-76
2022/12/04 22:17:59;;;;;;;31.70;13.00;;;;;;;1.30;100.00;99082.05;214134;1310;22593;-75
2022/12/04 22:23:02;;;;;;;34.00;16.20;;;;;;;1.29;100.00;99080.13;213978;1310;22509;-74
2022/12/04 22:28:04;;;;;;;36.00;15.00;;;;;;;1.29;100.00;99071.73;214122;1310;25336;-74
2022/12/04 22:33:06;;;;;;;34.50;15.90;;;;;;;1.27;100.00;99079.17;213948;1310;22492;-74
2022/12/04 22:38:08;;;;;;;29.40;12.50;;;;;;;1.24;100.00;99080.63;213945;1310;100788;-74
2022/12/04 22:43:09;;;;;;;34.40;14.60;;;;;;;1.24;100.00;99067.46;214068;1310;22711;-74
2022/12/04 22:48:17;;;;;;;34.10;13.70;;;;;;;1.17;100.00;99063.48;214229;1303;22540;-75
2022/12/04 22:53:19;;;;;;;33.20;14.60;;;;;;;1.11;100.00;99064.52;214209;1310;22606;-74
2022/12/04 22:58:21;;;;;;;31.40;14.10;;;;;;;1.07;100.00;99057.25;214042;1310;24283;-74
2022/12/04 23:03:23;;;;;;;32.30;12.30;;;;;;;1.07;100.00;99063.90;214232;1310;23166;-74
2022/12/04 23:08:25;;;;;;;39.50;15.60;;;;;;;1.07;100.00;99055.54;214184;1310;23506;-74
2022/12/04 23:13:27;;;;;;;34.40;14.90;;;;;;;1.12;100.00;99056.66;214165;1310;22476;-75
2022/12/04 23:18:29;;;;;;;32.40;14.90;;;;;;;1.10;100.00;99048.13;214342;1310;22493;-75
2022/12/04 23:23:32;;;;;;;35.90;14.90;;;;;;;1.09;100.00;99048.99;214188;1310;23117;-75
2022/12/04 23:28:35;;;;;;;34.70;16.10;;;;;;;1.11;100.00;99043.41;214196;1310;22521;-74
2022/12/04 23:33:38;;;;;;;29.10;14.30;;;;;;;1.12;100.00;99044.08;214189;1310;26378;-75
2022/12/04 23:38:42;;;;;;;34.10;13.40;;;;;;;1.13;100.00;99046.27;214352;1310;25330;-75